Time;durP1;ratioP1;P1;durP2;ratioP2;P2;SDS_P1;SDS_P2;PMS_P1;PMS_P2;Temp;Humidity;BMP_temperature;BMP_pressure;BME280_temperature;BME280_humidity;BME280_pressure;Samples;Min_cycle;Max_cycle;Signal;HPM_P1;HPM_P2
2023/01/18 00:01:17;;;;;;;25.92;16.52;;;0.00;1.00;;;;;;6348019;22;20254;-90
2023/01/18 00:03:56;;;;;;;23.73;15.05;;;0.00;1.00;;;;;;6345770;22;20249;-89
2023/01/18 00:06:26;;;;;;;27.45;16.52;;;0.00;1.00;;;;;;6349663;22;20210;-90
2023/01/18 00:08:55;;;;;;;22.60;16.95;;;0.00;1.00;;;;;;6349100;22;20209;-89
2023/01/18 00:11:28;;;;;;;22.52;16.50;;;0.00;1.00;;;;;;6347184;22;20517;-90
2023/01/18 00:13:55;;;;;;;24.25;15.40;;;0.00;1.00;;;;;;6338215;22;20213;-91
2023/01/18 00:16:36;;;;;;;20.00;14.45;;;0.00;1.00;;;;;;6349423;22;20203;-90
2023/01/18 00:19:05;;;;;;;22.73;15.57;;;0.10;1.00;;;;;;6339656;22;20241;-90
2023/01/18 00:21:35;;;;;;;24.40;15.88;;;0.10;1.00;;;;;;6369047;22;20190;-90
2023/01/18 00:24:09;;;;;;;22.42;14.90;;;0.10;1.00;;;;;;6347467;22;20260;-91
2023/01/18 00:26:55;;;;;;;23.58;15.35;;;0.10;1.00;;;;;;6347909;22;20281;-90
2023/01/18 00:29:36;;;;;;;23.65;15.05;;;0.10;1.00;;;;;;6350371;22;20206;-90
2023/01/18 00:32:05;;;;;;;18.98;13.52;;;0.20;1.00;;;;;;6349476;22;20851;-91
2023/01/18 00:34:36;;;;;;;21.38;15.05;;;0.10;1.00;;;;;;6349623;22;20193;-90
2023/01/18 00:37:14;;;;;;;21.17;14.65;;;0.20;1.00;;;;;;6345802;22;20211;-91
2023/01/18 00:39:44;;;;;;;18.05;13.80;;;0.30;1.00;;;;;;6344907;22;20631;-90
2023/01/18 00:45:16;;;;;;;21.85;16.00;;;0.30;1.00;;;;;;6330886;22;20214;-90
2023/01/18 00:47:47;;;;;;;21.48;14.23;;;0.30;1.00;;;;;;6343284;22;20224;-88
2023/01/18 00:50:23;;;;;;;23.58;15.02;;;0.30;1.00;;;;;;6379755;22;20245;-90
2023/01/18 00:52:58;;;;;;;20.05;13.52;;;0.30;1.00;;;;;;6356556;22;20253;-91
2023/01/18 00:55:27;;;;;;;21.65;13.70;;;0.30;1.00;;;;;;6363143;22;20203;-88
2023/01/18 00:57:55;;;;;;;18.48;13.82;;;0.40;1.00;;;;;;6351697;22;20229;-90
2023/01/18 01:00:25;;;;;;;21.08;14.23;;;0.40;1.00;;;;;;6344437;22;20232;-91
2023/01/18 01:03:06;;;;;;;17.30;13.30;;;0.30;1.00;;;;;;6365464;22;20263;-90
2023/01/18 01:08:28;;;;;;;;;;;;;;;;;;;;;
2023/01/18 01:11:23;;;;;;;18.60;13.30;;;0.30;1.00;;;;;;6334823;22;39665;-90
2023/01/18 01:27:58;;;;;;;21.30;12.85;;;0.20;1.00;;;;;;6343008;22;20382;-92
2023/01/18 01:30:28;;;;;;;22.40;14.82;;;0.20;1.00;;;;;;6349010;22;20284;-90
2023/01/18 01:32:55;;;;;;;20.38;15.00;;;0.20;1.00;;;;;;6347544;22;20221;-90
2023/01/18 01:35:25;;;;;;;19.17;14.45;;;0.10;1.00;;;;;;6349142;22;20254;-89
2023/01/18 01:38:07;;;;;;;19.15;12.20;;;0.10;1.00;;;;;;6343882;22;20667;-90
2023/01/18 01:40:37;;;;;;;19.65;13.50;;;0.10;1.00;;;;;;6346635;22;20217;-90
2023/01/18 01:43:17;;;;;;;21.10;13.23;;;0.10;1.00;;;;;;6346030;22;20195;-88
2023/01/18 01:45:55;;;;;;;18.17;12.88;;;0.10;1.00;;;;;;6348390;22;20191;-90
2023/01/18 01:48:25;;;;;;;19.40;13.15;;;0.10;1.00;;;;;;6335411;22;20187;-89
2023/01/18 01:50:56;;;;;;;19.77;13.32;;;0.10;1.00;;;;;;6356399;22;20210;-89
2023/01/18 01:53:26;;;;;;;19.42;13.13;;;0.20;1.00;;;;;;6367451;22;20478;-90
2023/01/18 01:55:57;;;;;;;18.88;13.55;;;0.30;1.00;;;;;;6357738;22;20214;-91
2023/01/18 01:58:29;;;;;;;22.77;13.93;;;0.30;1.00;;;;;;6347367;22;20195;-90
2023/01/18 02:00:57;;;;;;;21.17;13.45;;;0.40;1.00;;;;;;6343299;22;20206;-91
2023/01/18 02:03:26;;;;;;;20.33;14.13;;;0.40;1.00;;;;;;6349503;22;20225;-87
2023/01/18 02:06:15;;;;;;;18.67;13.48;;;0.30;1.00;;;;;;6347353;22;20207;-91
2023/01/18 02:08:54;;;;;;;19.38;13.95;;;0.30;1.00;;;;;;6346117;22;20209;-92
2023/01/18 02:11:44;;;;;;;17.50;12.90;;;0.30;1.00;;;;;;6349804;22;20308;-91
2023/01/18 02:17:44;;;;;;;17.88;11.95;;;0.40;1.00;;;;;;6345547;22;20187;-91
2023/01/18 02:20:45;;;;;;;19.25;13.20;;;0.40;1.00;;;;;;6311688;22;20926;-91
2023/01/18 02:23:46;;;;;;;21.40;13.70;;;0.40;1.00;;;;;;6351621;22;20523;-91
2023/01/18 02:26:53;;;;;;;22.52;14.60;;;0.40;1.00;;;;;;6351616;22;20221;-90
2023/01/18 02:29:55;;;;;;;17.77;13.80;;;0.30;1.00;;;;;;6346268;22;20253;-92
2023/01/18 02:32:58;;;;;;;23.02;14.95;;;0.40;1.00;;;;;;6363690;22;20197;-91
2023/01/18 02:35:37;;;;;;;21.35;13.93;;;0.50;1.00;;;;;;6368139;22;20203;-88
2023/01/18 02:38:14;;;;;;;21.27;15.02;;;0.50;1.00;;;;;;6373465;22;20201;-90
2023/01/18 02:41:05;;;;;;;20.02;14.00;;;0.40;1.00;;;;;;6369785;22;20191;-89
2023/01/18 02:46:43;;;;;;;18.30;13.23;;;0.40;1.00;;;;;;6368668;22;20202;-89
2023/01/18 02:49:30;;;;;;;23.38;12.60;;;0.40;1.00;;;;;;6353487;22;20289;-90
2023/01/18 02:55:46;;;;;;;21.33;14.57;;;0.20;1.00;;;;;;6341820;22;20206;-90
2023/01/18 02:58:37;;;;;;;20.10;13.15;;;0.10;1.00;;;;;;6349934;22;20217;-90
2023/01/18 03:01:17;;;;;;;19.90;13.70;;;0.20;1.00;;;;;;6361722;22;20313;-90
2023/01/18 03:03:57;;;;;;;21.38;13.75;;;0.10;1.00;;;;;;6366067;22;20285;-89
2023/01/18 03:06:36;;;;;;;18.10;12.05;;;0.10;1.00;;;;;;6356839;22;20207;-90
2023/01/18 03:09:06;;;;;;;17.65;12.40;;;0.20;1.00;;;;;;6357280;22;20202;-91
2023/01/18 03:11:58;;;;;;;19.00;12.40;;;0.30;1.00;;;;;;6351447;22;20272;-89
2023/01/18 03:14:42;;;;;;;16.92;11.65;;;0.40;1.00;;;;;;6348514;22;20219;-90
2023/01/18 03:17:24;;;;;;;18.65;12.15;;;0.40;1.00;;;;;;6363983;22;20195;-88
2023/01/18 03:20:07;;;;;;;18.52;13.57;;;0.40;1.00;;;;;;6368405;22;20247;-89
2023/01/18 03:25:36;;;;;;;20.42;12.85;;;0.40;1.00;;;;;;6367659;22;20183;-89
2023/01/18 03:34:16;;;;;;;18.10;11.80;;;0.40;1.00;;;;;;6356812;22;20947;-89
2023/01/18 03:36:58;;;;;;;16.30;10.95;;;0.30;1.00;;;;;;6356567;22;20209;-89
2023/01/18 03:39:36;;;;;;;17.85;12.05;;;0.30;1.00;;;;;;6358636;22;20237;-88
2023/01/18 03:42:15;;;;;;;17.85;11.75;;;0.30;1.00;;;;;;6356872;22;20248;-89
2023/01/18 03:45:16;;;;;;;18.20;11.75;;;0.40;1.00;;;;;;6352143;22;20216;-89
2023/01/18 03:47:49;;;;;;;18.00;12.32;;;0.40;1.00;;;;;;6350812;22;20217;-90
2023/01/18 03:50:17;;;;;;;18.70;12.43;;;0.50;1.00;;;;;;6350789;22;20202;-89
2023/01/18 03:52:54;;;;;;;16.23;10.55;;;0.50;1.00;;;;;;6349641;22;20254;-90
2023/01/18 03:55:36;;;;;;;20.67;12.60;;;0.50;1.00;;;;;;6357261;22;20209;-90
2023/01/18 03:58:14;;;;;;;20.92;13.60;;;0.60;1.00;;;;;;6346255;22;20914;-90
2023/01/18 04:00:58;;;;;;;18.13;12.07;;;0.60;1.00;;;;;;6329553;22;20225;-88
2023/01/18 04:03:26;;;;;;;21.65;13.40;;;0.60;1.00;;;;;;6377697;22;20209;-88
2023/01/18 04:05:57;;;;;;;20.10;12.90;;;0.60;1.00;;;;;;6352093;22;20210;-89
2023/01/18 04:08:27;;;;;;;18.95;12.35;;;0.60;1.00;;;;;;6324747;22;20221;-89
2023/01/18 04:10:58;;;;;;;16.95;12.07;;;0.60;1.00;;;;;;6347715;22;20233;-90
2023/01/18 04:13:27;;;;;;;23.05;14.25;;;0.70;1.00;;;;;;6351127;22;20218;-89
2023/01/18 04:16:05;;;;;;;19.60;12.18;;;0.80;1.00;;;;;;6351600;22;20211;-90
2023/01/18 04:18:37;;;;;;;18.67;12.35;;;0.70;1.00;;;;;;6350980;22;20202;-90
2023/01/18 04:21:07;;;;;;;17.10;10.98;;;0.70;1.00;;;;;;6350109;22;20210;-90
2023/01/18 04:23:37;;;;;;;15.05;10.13;;;0.70;1.00;;;;;;6352347;22;20198;-90
2023/01/18 04:26:06;;;;;;;17.17;11.00;;;0.80;1.00;;;;;;6349180;22;20243;-89
2023/01/18 04:28:36;;;;;;;18.73;10.75;;;0.80;1.00;;;;;;6365694;22;20194;-90
2023/01/18 04:31:15;;;;;;;15.82;10.30;;;0.80;1.00;;;;;;6353314;22;20222;-89
2023/01/18 04:33:54;;;;;;;21.23;12.10;;;0.80;1.00;;;;;;6349811;22;20248;-91
2023/01/18 04:36:27;;;;;;;16.10;10.35;;;0.80;1.00;;;;;;6352226;22;20206;-91
2023/01/18 04:39:05;;;;;;;22.50;11.65;;;0.80;1.00;;;;;;6352932;22;20319;-90
2023/01/18 04:41:36;;;;;;;16.33;10.82;;;0.90;1.00;;;;;;6336636;22;20233;-88
2023/01/18 04:44:07;;;;;;;17.05;11.27;;;0.90;1.00;;;;;;6350450;22;20223;-90
2023/01/18 04:46:37;;;;;;;20.05;11.70;;;1.00;1.00;;;;;;6342670;22;21011;-89
2023/01/18 04:49:10;;;;;;;23.15;10.85;;;1.00;1.00;;;;;;6346466;22;20230;-90
2023/01/18 04:51:38;;;;;;;20.60;10.05;;;1.00;1.00;;;;;;6344600;22;20285;-91
2023/01/18 04:54:16;;;;;;;17.00;9.70;;;0.90;1.00;;;;;;6351016;22;20241;-91
2023/01/18 04:56:46;;;;;;;15.63;8.70;;;0.90;1.00;;;;;;6345391;22;20233;-91
2023/01/18 04:59:16;;;;;;;15.68;9.20;;;1.00;1.00;;;;;;6349595;22;20207;-89
2023/01/18 05:09:28;;;;;;;15.65;8.18;;;1.20;1.00;;;;;;6075641;23;20661;-90
2023/01/18 05:19:12;;;;;;;17.02;10.05;;;1.30;1.00;;;;;;5117425;27;20592;-82
2023/01/18 05:21:39;;;;;;;17.42;10.10;;;1.30;1.00;;;;;;5100018;27;20356;-81
2023/01/18 05:24:07;;;;;;;24.73;13.10;;;1.50;1.00;;;;;;5098347;27;20449;-81
2023/01/18 05:26:35;;;;;;;17.60;8.93;;;1.50;1.00;;;;;;5096025;27;20236;-80
2023/01/18 05:29:02;;;;;;;14.10;8.00;;;1.60;1.00;;;;;;5085514;27;20774;-80
2023/01/18 05:31:31;;;;;;;19.05;10.32;;;1.60;1.00;;;;;;5107345;27;20231;-82
2023/01/18 05:34:02;;;;;;;18.75;8.98;;;1.60;1.00;;;;;;5098753;27;20235;-82
2023/01/18 05:36:40;;;;;;;22.67;9.70;;;1.70;1.00;;;;;;5096687;27;20342;-82
2023/01/18 05:39:08;;;;;;;14.85;7.70;;;1.80;1.00;;;;;;5104432;27;20230;-80
2023/01/18 05:41:35;;;;;;;13.07;6.45;;;1.80;1.00;;;;;;5090245;27;20244;-82
2023/01/18 05:44:02;;;;;;;17.20;8.07;;;1.80;1.00;;;;;;5103191;27;20223;-80
2023/01/18 05:46:29;;;;;;;12.65;8.07;;;1.90;1.00;;;;;;5091805;27;20935;-82
2023/01/18 05:48:59;;;;;;;15.80;6.30;;;1.90;1.00;;;;;;5092754;27;20247;-82
2023/01/18 05:51:27;;;;;;;14.18;6.13;;;2.00;1.00;;;;;;5101508;27;20251;-82
2023/01/18 05:53:57;;;;;;;15.10;5.68;;;2.00;1.00;;;;;;5106154;27;20271;-82
2023/01/18 05:56:25;;;;;;;12.38;5.82;;;2.00;1.00;;;;;;5104721;27;21079;-82
2023/01/18 05:58:52;;;;;;;13.48;6.90;;;2.00;1.00;;;;;;5107667;27;20370;-81
2023/01/18 06:01:19;;;;;;;14.82;5.30;;;2.00;1.00;;;;;;5096273;27;20236;-80
2023/01/18 06:03:47;;;;;;;12.85;5.85;;;2.10;1.00;;;;;;5125417;27;20273;-78
2023/01/18 06:06:18;;;;;;;17.88;5.50;;;2.10;1.00;;;;;;5107155;27;20243;-82
2023/01/18 06:08:45;;;;;;;14.10;4.70;;;2.20;1.00;;;;;;5111705;27;20270;-81
2023/01/18 06:11:14;;;;;;;14.75;6.32;;;2.20;1.00;;;;;;5097771;27;20295;-80
2023/01/18 06:13:41;;;;;;;12.80;4.22;;;2.10;1.00;;;;;;5107384;27;21092;-80
2023/01/18 06:16:10;;;;;;;15.60;4.75;;;2.20;1.00;;;;;;5100351;27;20757;-81
2023/01/18 06:21:18;;;;;;;15.18;5.80;;;2.20;1.00;;;;;;5101550;27;20229;-81
2023/01/18 06:23:46;;;;;;;20.30;6.97;;;2.20;1.00;;;;;;5130009;27;20292;-80
2023/01/18 06:26:17;;;;;;;11.65;5.55;;;2.20;1.00;;;;;;5109503;27;20232;-80
2023/01/18 06:28:44;;;;;;;13.18;5.50;;;2.20;1.00;;;;;;5105628;27;20267;-83
2023/01/18 06:31:11;;;;;;;16.90;6.75;;;2.30;1.00;;;;;;5095277;27;20780;-80
2023/01/18 06:33:39;;;;;;;16.00;7.35;;;2.30;1.00;;;;;;5096309;27;20243;-80
2023/01/18 06:36:09;;;;;;;13.55;6.80;;;2.20;1.00;;;;;;5101743;27;20331;-81
2023/01/18 06:38:36;;;;;;;15.68;8.10;;;2.20;1.00;;;;;;5089147;28;20259;-79
2023/01/18 06:41:06;;;;;;;16.98;6.47;;;2.20;1.00;;;;;;5083129;27;20340;-80
2023/01/18 06:43:46;;;;;;;16.50;6.70;;;2.30;1.00;;;;;;5075760;27;20287;-81
2023/01/18 06:46:21;;;;;;;11.93;6.93;;;2.20;1.00;;;;;;5099957;27;20224;-80
2023/01/18 06:48:50;;;;;;;11.32;5.95;;;2.30;1.00;;;;;;5077378;27;20228;-81
2023/01/18 06:51:17;;;;;;;16.33;8.20;;;2.20;1.00;;;;;;5076537;27;20262;-81
2023/01/18 06:53:58;;;;;;;16.38;8.90;;;2.20;1.00;;;;;;5097513;27;20231;-82
2023/01/18 06:56:26;;;;;;;14.85;7.97;;;2.20;1.00;;;;;;5098973;27;20284;-82
2023/01/18 06:59:21;;;;;;;17.10;7.60;;;2.10;1.00;;;;;;5097161;27;20260;-82
2023/01/18 07:05:07;;;;;;;16.42;9.23;;;2.10;1.00;;;;;;5015397;28;20868;-82
2023/01/18 07:07:34;;;;;;;19.15;8.82;;;2.10;1.00;;;;;;5052787;28;20229;-81
2023/01/18 07:10:04;;;;;;;15.30;7.43;;;2.10;1.00;;;;;;5069882;27;20260;-81
2023/01/18 07:12:34;;;;;;;20.23;6.80;;;2.10;1.00;;;;;;5071777;27;20308;-80
2023/01/18 07:15:09;;;;;;;11.85;6.03;;;2.20;1.00;;;;;;5064902;27;20303;-82
2023/01/18 07:17:37;;;;;;;12.25;6.85;;;2.20;1.00;;;;;;5075800;27;20251;-81
2023/01/18 07:20:18;;;;;;;11.68;6.45;;;2.20;1.00;;;;;;5068300;27;20247;-81
2023/01/18 07:22:58;;;;;;;15.30;6.90;;;2.20;1.00;;;;;;5097946;27;20240;-82
2023/01/18 07:25:29;;;;;;;23.20;9.98;;;2.30;1.00;;;;;;5092506;28;20235;-84
2023/01/18 07:27:59;;;;;;;17.38;7.30;;;2.30;1.00;;;;;;5078637;27;21097;-80
2023/01/18 07:30:28;;;;;;;12.93;6.70;;;2.40;1.00;;;;;;5093393;27;20290;-82
2023/01/18 07:32:56;;;;;;;11.38;5.35;;;2.30;1.00;;;;;;5092642;27;20231;-82
2023/01/18 07:35:26;;;;;;;23.17;6.88;;;2.40;1.00;;;;;;5091011;27;20272;-82
2023/01/18 07:37:53;;;;;;;13.52;7.78;;;2.40;1.00;;;;;;5086214;27;20235;-81
2023/01/18 07:40:27;;;;;;;15.95;7.50;;;2.40;1.00;;;;;;5083500;27;20216;-80
2023/01/18 07:43:02;;;;;;;13.05;6.95;;;2.30;1.00;;;;;;5076717;27;20254;-82
2023/01/18 07:46:13;;;;;;;14.38;6.10;;;2.40;1.00;;;;;;5080411;27;20241;-83
2023/01/18 07:48:43;;;;;;;16.67;6.57;;;2.50;1.00;;;;;;5065072;27;20300;-82
2023/01/18 07:51:12;;;;;;;13.38;5.95;;;2.50;1.00;;;;;;5074231;28;20237;-83
2023/01/18 07:53:40;;;;;;;13.48;6.10;;;2.50;1.00;;;;;;5076016;27;20247;-80
2023/01/18 07:56:18;;;;;;;16.35;6.03;;;2.60;1.00;;;;;;5083197;27;20236;-82
2023/01/18 07:58:47;;;;;;;30.75;6.30;;;2.60;1.00;;;;;;5095082;27;20227;-81
2023/01/18 08:01:20;;;;;;;17.52;5.60;;;2.60;1.00;;;;;;5099173;27;20285;-82
2023/01/18 08:03:49;;;;;;;14.23;5.30;;;2.60;1.00;;;;;;5085855;27;20217;-83
2023/01/18 08:06:30;;;;;;;14.90;5.22;;;2.70;1.00;;;;;;5099265;28;20269;-84
2023/01/18 08:09:07;;;;;;;11.15;5.30;;;2.70;1.00;;;;;;5095594;27;20224;-84
2023/01/18 08:11:35;;;;;;;18.38;6.97;;;2.80;1.00;;;;;;5095428;28;20262;-84
2023/01/18 08:14:14;;;;;;;15.45;6.53;;;2.80;1.00;;;;;;5097050;27;20220;-82
2023/01/18 08:16:50;;;;;;;14.07;4.88;;;2.80;1.00;;;;;;5079670;27;20219;-83
2023/01/18 08:19:17;;;;;;;14.90;6.07;;;2.90;1.00;;;;;;5087010;27;20216;-82
2023/01/18 08:21:50;;;;;;;12.48;4.70;;;3.00;1.00;;;;;;5108886;27;21194;-84
2023/01/18 08:24:18;;;;;;;15.02;5.40;;;3.00;1.00;;;;;;5091216;27;20232;-82
2023/01/18 08:26:50;;;;;;;12.77;5.00;;;3.00;1.00;;;;;;5083922;27;20247;-82
2023/01/18 08:29:26;;;;;;;15.13;6.53;;;3.00;1.00;;;;;;5098621;27;20754;-84
2023/01/18 08:32:01;;;;;;;12.57;5.07;;;3.00;1.00;;;;;;5098868;27;20298;-81
2023/01/18 08:34:29;;;;;;;16.80;7.15;;;3.00;1.00;;;;;;5080222;27;20236;-81
2023/01/18 08:37:02;;;;;;;17.83;7.15;;;3.10;1.00;;;;;;5077057;27;21066;-81
2023/01/18 08:40:12;;;;;;;14.38;7.90;;;3.10;1.00;;;;;;5072636;27;20673;-82
2023/01/18 08:43:11;;;;;;;12.57;5.75;;;3.10;1.00;;;;;;4988187;28;20234;-81
2023/01/18 08:52:17;;;;;;;15.90;5.50;;;3.50;1.00;;;;;;4924408;28;20999;-80
2023/01/18 08:54:45;;;;;;;11.23;5.68;;;3.60;1.00;;;;;;4977687;28;20255;-82
2023/01/18 08:57:12;;;;;;;24.48;5.90;;;3.70;1.00;;;;;;5058615;27;20315;-81
2023/01/18 09:03:25;;;;;;;;;;;;;;;;;;;;;
2023/01/18 09:09:12;;;;;;;;;;;;;;;;;;;;;
2023/01/18 09:12:02;;;;;;;;;;;;;;;;;;;;;
2023/01/18 09:18:03;;;;;;;;;;;;;;;;;;;;;
2023/01/18 09:24:24;;;;;;;;;;;;;;;;;;;;;
2023/01/18 09:36:24;;;;;;;;;;;;;;;;;;;;;
2023/01/18 09:38:53;;;;;;;11.20;5.97;;;4.50;1.00;;;;;;4987985;28;40925;-81
2023/01/18 09:44:55;;;;;;;;;;;;;;;;;;;;;
2023/01/18 09:48:11;;;;;;;;;;;;;;;;;;;;;
2023/01/18 09:50:52;;;;;;;14.95;5.63;;;5.40;1.00;;;;;;4945511;28;50517;-83
2023/01/18 09:53:54;;;;;;;15.77;8.07;;;5.40;1.00;;;;;;4979438;28;20238;-80
2023/01/18 10:00:20;;;;;;;;;;;;;;;;;;;;;
2023/01/18 10:09:21;;;;;;;;;;;;;;;;;;;;;
2023/01/18 10:15:35;;;;;;;17.33;6.13;;;5.30;1.00;;;;;;5035905;28;20435;-81
2023/01/18 10:21:52;;;;;;;14.52;6.18;;;5.40;1.00;;;;;;4962859;28;20236;-84
2023/01/18 10:28:39;;;;;;;13.88;8.38;;;5.40;1.00;;;;;;4942426;28;20239;-80
2023/01/18 10:31:32;;;;;;;17.35;6.78;;;5.30;1.00;;;;;;4871914;28;20306;-83
2023/01/18 10:34:23;;;;;;;15.57;6.60;;;5.30;1.00;;;;;;4935148;28;20255;-81
2023/01/18 10:36:57;;;;;;;13.68;6.50;;;5.30;1.00;;;;;;5037947;27;20256;-84
2023/01/18 10:39:42;;;;;;;13.98;6.75;;;5.40;1.00;;;;;;5095831;27;20351;-82
2023/01/18 10:42:24;;;;;;;17.67;8.10;;;5.40;1.00;;;;;;5076066;27;20236;-82
2023/01/18 10:45:03;;;;;;;13.35;6.90;;;5.40;1.00;;;;;;5068097;27;20525;-83
2023/01/18 10:47:33;;;;;;;16.00;7.50;;;5.40;1.00;;;;;;5084290;27;20708;-81
2023/01/18 10:50:23;;;;;;;13.18;6.60;;;5.40;1.00;;;;;;5083567;27;21367;-81
2023/01/18 10:52:55;;;;;;;17.80;7.75;;;5.40;1.00;;;;;;5073319;27;20244;-83
2023/01/18 10:55:36;;;;;;;;;;;;;;;;;;;;;
2023/01/18 10:58:30;;;;;;;;;;;;;;;;;;;;;
2023/01/18 11:01:05;;;;;;;13.10;6.15;;;5.00;1.00;;;;;;5065917;27;40697;-82
2023/01/18 11:03:53;;;;;;;14.18;6.28;;;4.90;1.00;;;;;;5085577;27;20276;-82
2023/01/18 11:06:23;;;;;;;17.73;7.72;;;4.90;1.00;;;;;;5072310;27;20743;-83
2023/01/18 11:09:03;;;;;;;15.85;8.23;;;4.90;1.00;;;;;;5072285;27;20246;-81
2023/01/18 11:15:05;;;;;;;;;;;;;;;;;;;;;
2023/01/18 11:21:42;;;;;;;;;;;;;;;;;;;;;
2023/01/18 11:28:13;;;;;;;;;;;;;;;;;;;;;
2023/01/18 11:31:15;;;;;;;18.05;7.88;;;4.90;1.00;;;;;;4881485;29;48352;-84
2023/01/18 11:34:13;;;;;;;;;;;;;;;;;;;;;
2023/01/18 11:40:54;;;;;;;;;;;;;;;;;;;;;
2023/01/18 11:43:52;;;;;;;15.27;8.18;;;4.90;1.00;;;;;;5074056;27;50186;-82
2023/01/18 11:49:43;;;;;;;17.35;9.80;;;5.00;1.00;;;;;;5073116;27;20239;-81
2023/01/18 11:52:35;;;;;;;19.02;8.82;;;4.90;1.00;;;;;;5077266;27;20239;-79
2023/01/18 11:58:53;;;;;;;22.60;8.40;;;5.00;1.00;;;;;;4983190;28;20304;-80
2023/01/18 12:08:29;;;;;;;19.27;7.45;;;5.00;1.00;;;;;;5076251;27;20260;-81
2023/01/18 12:11:17;;;;;;;18.20;9.63;;;5.00;1.00;;;;;;5094462;27;20330;-80
2023/01/18 12:14:53;;;;;;;;;;;;;;;;;;;;;
2023/01/18 12:17:36;;;;;;;14.15;7.15;;;4.90;1.00;;;;;;4978135;28;50891;-80
2023/01/18 12:20:26;;;;;;;12.60;7.55;;;4.90;1.00;;;;;;5048792;27;20230;-81
2023/01/18 12:27:42;;;;;;;;;;;;;;;;;;;;;
2023/01/18 12:30:26;;;;;;;12.70;7.10;;;4.80;1.00;;;;;;5029993;27;39892;-81
2023/01/18 12:33:41;;;;;;;15.52;6.50;;;4.70;1.00;;;;;;5069044;27;20238;-83
2023/01/18 12:36:23;;;;;;;11.27;6.00;;;4.70;1.00;;;;;;5062370;28;20256;-83
2023/01/18 12:38:51;;;;;;;14.82;6.75;;;4.80;1.00;;;;;;5098272;27;20236;-85
2023/01/18 12:41:35;;;;;;;14.00;7.15;;;4.80;1.00;;;;;;5087299;27;20242;-80
2023/01/18 12:44:31;;;;;;;12.52;6.47;;;4.80;1.00;;;;;;5090940;27;20313;-80
2023/01/18 12:47:20;;;;;;;13.50;6.60;;;4.80;1.00;;;;;;5099277;27;20239;-80
2023/01/18 12:49:56;;;;;;;13.60;6.05;;;4.80;1.00;;;;;;5085574;27;20317;-80
2023/01/18 12:52:25;;;;;;;14.40;7.80;;;4.90;1.00;;;;;;5072719;27;20243;-81
2023/01/18 12:54:55;;;;;;;17.48;9.68;;;5.00;1.00;;;;;;5087246;27;20258;-81
2023/01/18 12:57:24;;;;;;;15.63;7.05;;;5.10;1.00;;;;;;5075161;28;20282;-82
2023/01/18 12:59:55;;;;;;;26.23;14.27;;;5.20;1.00;;;;;;5085371;27;20239;-82
2023/01/18 13:02:30;;;;;;;42.88;23.55;;;5.20;1.00;;;;;;5076024;27;20231;-80
2023/01/18 13:05:05;;;;;;;34.95;20.58;;;5.20;1.00;;;;;;5096217;27;20257;-81
2023/01/18 13:07:39;;;;;;;24.52;13.98;;;5.20;1.00;;;;;;5073719;27;20246;-81
2023/01/18 13:10:16;;;;;;;48.70;29.27;;;5.30;1.00;;;;;;5085652;27;20360;-80
2023/01/18 13:12:44;;;;;;;54.17;32.67;;;5.30;1.00;;;;;;5079659;27;20732;-82
2023/01/18 13:15:29;;;;;;;55.17;30.15;;;5.30;1.00;;;;;;5066587;28;20240;-80
2023/01/18 13:18:05;;;;;;;22.92;12.00;;;5.30;1.00;;;;;;5080144;27;20283;-80
2023/01/18 13:20:48;;;;;;;17.85;9.13;;;5.30;1.00;;;;;;5087742;27;20711;-84
2023/01/18 13:23:43;;;;;;;74.93;44.35;;;5.10;1.00;;;;;;5106134;27;20258;-82
2023/01/18 13:26:34;;;;;;;21.55;9.65;;;5.10;1.00;;;;;;5083647;27;20247;-81
2023/01/18 13:29:16;;;;;;;46.25;27.83;;;5.00;1.00;;;;;;5084084;27;20231;-82
2023/01/18 13:31:45;;;;;;;45.30;27.52;;;5.10;1.00;;;;;;5085982;27;20285;-85
2023/01/18 13:34:30;;;;;;;22.33;13.73;;;5.10;1.00;;;;;;5072351;28;20271;-82
2023/01/18 13:36:58;;;;;;;19.10;11.32;;;5.10;1.00;;;;;;5074046;27;20236;-82
2023/01/18 13:39:34;;;;;;;11.77;7.32;;;5.10;1.00;;;;;;5088713;27;21318;-81
2023/01/18 13:42:24;;;;;;;16.30;7.50;;;5.10;1.00;;;;;;5090346;27;20224;-83
2023/01/18 13:45:14;;;;;;;12.50;6.80;;;5.00;1.00;;;;;;5091076;27;20239;-80
2023/01/18 13:47:58;;;;;;;11.45;6.43;;;4.90;1.00;;;;;;5096346;27;21185;-82
2023/01/18 13:50:47;;;;;;;13.65;6.05;;;4.80;1.00;;;;;;5096621;27;20323;-82
2023/01/18 13:53:49;;;;;;;13.93;7.15;;;4.70;1.00;;;;;;5098330;27;20239;-82
2023/01/18 13:56:41;;;;;;;14.40;7.07;;;4.70;1.00;;;;;;5086379;27;20246;-82
2023/01/18 13:59:23;;;;;;;10.77;5.80;;;4.60;1.00;;;;;;5085600;27;20280;-81
2023/01/18 14:01:52;;;;;;;11.32;7.68;;;4.60;1.00;;;;;;5078097;27;20832;-82
2023/01/18 14:05:03;;;;;;;12.32;5.82;;;4.50;1.00;;;;;;5092067;27;20225;-85
2023/01/18 14:07:45;;;;;;;10.85;6.78;;;4.50;1.00;;;;;;5091556;27;20240;-83
2023/01/18 14:10:52;;;;;;;;;;;;;;;;;;;;;
2023/01/18 14:14:22;;;;;;;;;;;;;;;;;;;;;
2023/01/18 14:17:04;;;;;;;14.25;6.85;;;4.40;1.00;;;;;;5064224;27;20241;-81
2023/01/18 14:24:06;;;;;;;;;;;;;;;;;;;;;
2023/01/18 14:30:05;;;;;;;13.60;8.60;;;4.10;1.00;;;;;;4943508;28;20234;-79
2023/01/18 14:32:56;;;;;;;15.15;6.82;;;4.10;1.00;;;;;;5013775;28;20286;-80
2023/01/18 14:35:25;;;;;;;14.10;7.18;;;4.10;1.00;;;;;;5033079;27;20227;-85
2023/01/18 14:38:12;;;;;;;12.90;7.63;;;4.10;1.00;;;;;;5091377;27;20298;-80
2023/01/18 14:40:53;;;;;;;11.60;6.32;;;4.00;1.00;;;;;;5093083;27;20326;-81
2023/01/18 14:43:26;;;;;;;11.57;6.18;;;4.00;1.00;;;;;;5093098;27;20742;-81
2023/01/18 14:46:04;;;;;;;10.10;6.20;;;4.00;1.00;;;;;;5096015;27;20626;-81
2023/01/18 14:51:48;;;;;;;14.40;6.90;;;4.10;1.00;;;;;;5074928;27;20236;-81
2023/01/18 14:54:25;;;;;;;12.52;6.70;;;4.10;1.00;;;;;;4999251;28;20245;-81
2023/01/18 14:57:33;;;;;;;11.65;7.25;;;4.10;1.00;;;;;;5072649;27;20243;-81
2023/01/18 15:00:15;;;;;;;17.25;8.07;;;4.10;1.00;;;;;;4975311;28;20240;-82
2023/01/18 15:02:45;;;;;;;16.35;9.88;;;4.10;1.00;;;;;;5028980;28;20684;-80
2023/01/18 15:05:26;;;;;;;13.00;7.40;;;4.10;1.00;;;;;;5078776;28;20263;-81
2023/01/18 15:07:58;;;;;;;12.48;6.75;;;4.10;1.00;;;;;;5089454;27;20240;-80
2023/01/18 15:10:28;;;;;;;15.50;9.20;;;4.10;1.00;;;;;;5081519;28;20247;-80
2023/01/18 15:12:58;;;;;;;14.80;7.70;;;4.10;1.00;;;;;;5071614;28;20273;-81
2023/01/18 15:15:28;;;;;;;12.90;7.13;;;4.10;1.00;;;;;;5081824;28;20329;-81
2023/01/18 15:17:59;;;;;;;13.68;7.38;;;4.20;1.00;;;;;;5089050;27;20339;-81
2023/01/18 15:20:32;;;;;;;15.77;8.00;;;4.20;1.00;;;;;;5084277;27;20244;-81
2023/01/18 15:23:02;;;;;;;15.48;6.82;;;4.10;1.00;;;;;;5089291;27;20247;-79
2023/01/18 15:25:37;;;;;;;12.73;6.30;;;4.10;1.00;;;;;;5088330;27;20295;-83
2023/01/18 15:31:05;;;;;;;14.35;6.32;;;4.20;1.00;;;;;;5091011;27;20236;-80
2023/01/18 15:34:15;;;;;;;15.52;7.30;;;4.10;1.00;;;;;;5091671;27;20208;-80
2023/01/18 15:37:19;;;;;;;18.88;8.68;;;4.00;1.00;;;;;;5059356;28;20240;-80
2023/01/18 15:43:44;;;;;;;30.10;17.30;;;3.90;1.00;;;;;;4941757;28;20225;-83
2023/01/18 15:46:20;;;;;;;12.90;7.40;;;3.90;1.00;;;;;;5056643;28;20419;-83
2023/01/18 15:48:56;;;;;;;15.18;7.68;;;3.80;1.00;;;;;;5062921;28;20238;-83
2023/01/18 15:54:44;;;;;;;15.85;7.40;;;3.80;1.00;;;;;;5033227;28;20248;-82
2023/01/18 16:00:36;;;;;;;18.00;7.70;;;3.80;1.00;;;;;;5062945;28;21079;-80
2023/01/18 16:03:05;;;;;;;16.90;8.07;;;3.80;1.00;;;;;;5077740;27;20236;-80
2023/01/18 16:05:34;;;;;;;20.13;8.30;;;3.80;1.00;;;;;;5106960;27;20232;-84
2023/01/18 16:08:17;;;;;;;16.80;7.40;;;3.80;1.00;;;;;;5089692;27;20913;-80
2023/01/18 16:10:52;;;;;;;16.38;7.63;;;3.80;1.00;;;;;;5086721;27;20244;-81
2023/01/18 16:13:37;;;;;;;12.23;7.30;;;3.90;1.00;;;;;;5082040;27;20232;-81
2023/01/18 16:16:20;;;;;;;16.70;8.10;;;3.90;1.00;;;;;;5066162;27;20299;-81
2023/01/18 16:18:51;;;;;;;15.13;7.45;;;3.80;1.00;;;;;;5080654;27;20804;-84
2023/01/18 16:21:29;;;;;;;19.65;8.25;;;3.80;1.00;;;;;;5065697;28;20252;-81
2023/01/18 16:23:58;;;;;;;17.13;7.57;;;3.70;1.00;;;;;;5061874;28;20368;-80
2023/01/18 16:29:14;;;;;;;16.77;6.93;;;3.70;1.00;;;;;;5058411;28;20254;-79
2023/01/18 16:35:16;;;;;;;17.42;8.50;;;3.70;1.00;;;;;;5068963;28;20350;-83
2023/01/18 16:37:56;;;;;;;17.20;8.00;;;3.60;1.00;;;;;;5069750;27;20240;-82
2023/01/18 16:40:36;;;;;;;15.65;8.80;;;3.60;1.00;;;;;;5060051;28;20971;-82
2023/01/18 16:43:24;;;;;;;21.55;12.38;;;3.60;1.00;;;;;;5065845;28;20270;-84
2023/01/18 16:46:05;;;;;;;17.05;8.40;;;3.60;1.00;;;;;;5036413;28;20252;-82
2023/01/18 16:48:42;;;;;;;20.45;8.73;;;3.60;1.00;;;;;;5073239;27;20220;-81
2023/01/18 16:51:18;;;;;;;14.07;7.25;;;3.60;1.00;;;;;;5066298;27;20228;-83
2023/01/18 16:53:54;;;;;;;18.17;8.65;;;3.70;1.00;;;;;;5076465;27;20236;-83
2023/01/18 16:56:24;;;;;;;18.70;8.40;;;3.70;1.00;;;;;;5084402;27;20243;-83
2023/01/18 16:59:25;;;;;;;23.20;9.15;;;3.70;1.00;;;;;;5081740;27;20243;-84
2023/01/18 17:02:17;;;;;;;20.15;8.70;;;3.70;1.00;;;;;;5027503;28;21494;-85
2023/01/18 17:04:45;;;;;;;20.90;9.07;;;3.70;1.00;;;;;;5037301;28;20261;-85
2023/01/18 17:07:15;;;;;;;16.23;9.73;;;3.70;1.00;;;;;;5017277;28;20246;-83
2023/01/18 17:12:36;;;;;;;16.73;9.63;;;3.70;1.00;;;;;;5079651;28;20220;-83
2023/01/18 17:15:06;;;;;;;72.97;24.35;;;3.70;1.00;;;;;;5077718;27;20251;-83
2023/01/18 17:17:44;;;;;;;40.97;17.95;;;3.80;1.00;;;;;;5086801;28;20278;-83